createdAt,value
2022-10-09T00:01:12.294Z,65.35
2022-10-09T00:03:42.158Z,65.48
2022-10-09T00:06:13.415Z,65.45
2022-10-09T00:08:41.406Z,65.57
2022-10-09T00:11:14.218Z,65.31
2022-10-09T00:13:41.781Z,65.33
2022-10-09T00:16:10.784Z,65.42
2022-10-09T00:18:38.143Z,65.67
2022-10-09T00:21:06.392Z,65.96
2022-10-09T00:23:33.458Z,65.92
2022-10-09T00:26:01.761Z,66.01
2022-10-09T00:28:34.248Z,65.95
2022-10-09T00:31:11.505Z,66.22
2022-10-09T00:33:38.682Z,66.29
2022-10-09T00:36:07.411Z,66.42
2022-10-09T00:38:34.823Z,66.00
2022-10-09T00:41:01.944Z,66.18
2022-10-09T00:43:42.624Z,66.44
2022-10-09T00:46:50.919Z,66.44
2022-10-09T00:49:34.680Z,66.35
2022-10-09T00:52:05.160Z,66.22
2022-10-09T00:54:36.569Z,66.38
2022-10-09T00:57:04.041Z,66.36
2022-10-09T00:59:31.855Z,66.53
2022-10-09T01:01:58.894Z,66.42
2022-10-09T01:04:26.275Z,66.64
2022-10-09T01:07:40.144Z,66.75
2022-10-09T01:10:27.456Z,66.75
2022-10-09T01:13:12.807Z,66.93
2022-10-09T01:16:04.734Z,67.02
2022-10-09T01:18:47.574Z,67.16
2022-10-09T01:21:17.594Z,67.17
2022-10-09T01:24:07.758Z,67.31
2022-10-09T01:27:10.601Z,67.20
2022-10-09T01:29:49.659Z,67.32
2022-10-09T01:32:23.428Z,66.93
2022-10-09T01:34:52.827Z,67.06
2022-10-09T01:37:22.447Z,67.50
2022-10-09T01:39:51.667Z,67.90
2022-10-09T01:42:21.177Z,68.03
2022-10-09T01:44:48.186Z,67.90
2022-10-09T01:47:18.318Z,68.17
2022-10-09T01:50:21.238Z,68.09
2022-10-09T01:52:56.024Z,68.49
2022-10-09T01:55:26.836Z,68.39
2022-10-09T01:58:00.979Z,68.63
2022-10-09T02:00:33.525Z,68.74
2022-10-09T02:03:03.101Z,68.61
2022-10-09T02:05:32.241Z,68.41
2022-10-09T02:08:00.348Z,68.73
2022-10-09T02:10:27.840Z,68.59
2022-10-09T02:13:00.581Z,68.60
2022-10-09T02:15:42.204Z,69.23
2022-10-09T02:18:13.956Z,69.19
2022-10-09T02:20:48.099Z,68.82
2022-10-09T02:23:16.804Z,68.90
2022-10-09T02:25:44.197Z,69.06
2022-10-09T02:28:11.437Z,69.63
2022-10-09T02:30:59.121Z,69.80
2022-10-09T02:33:34.021Z,69.62
2022-10-09T02:36:02.030Z,69.29
2022-10-09T02:38:29.282Z,69.57
2022-10-09T02:41:01.092Z,69.51
2022-10-09T02:43:29.055Z,69.53
2022-10-09T02:45:55.980Z,69.29
2022-10-09T02:48:22.862Z,69.25
2022-10-09T02:50:49.884Z,69.78
2022-10-09T02:53:16.878Z,69.93
2022-10-09T02:55:43.817Z,69.65
2022-10-09T02:58:10.735Z,69.58
2022-10-09T03:00:41.156Z,69.75
2022-10-09T03:03:08.163Z,69.98
2022-10-09T03:05:35.209Z,69.46
2022-10-09T03:08:02.149Z,69.47
2022-10-09T03:10:29.061Z,69.13
2022-10-09T03:12:56.081Z,69.49
2022-10-09T03:15:23.138Z,69.14
2022-10-09T03:17:50.234Z,68.96
2022-10-09T03:20:17.447Z,68.67
2022-10-09T03:22:44.345Z,68.73
2022-10-09T03:25:11.373Z,69.14
2022-10-09T03:27:38.392Z,68.84
2022-10-09T03:30:06.064Z,68.86
2022-10-09T03:32:33.193Z,68.42
2022-10-09T03:35:00.164Z,68.92
2022-10-09T03:37:27.226Z,68.59
2022-10-09T03:39:54.220Z,68.61
2022-10-09T03:42:21.185Z,68.09
2022-10-09T03:44:48.200Z,68.78
2022-10-09T03:47:18.271Z,68.36
2022-10-09T03:49:45.444Z,67.93
2022-10-09T03:52:14.618Z,67.74
2022-10-09T03:54:41.609Z,67.09
2022-10-09T03:57:11.078Z,67.11
2022-10-09T03:59:38.102Z,65.72
2022-10-09T04:02:05.153Z,65.52
2022-10-09T04:04:32.168Z,65.43
2022-10-09T04:06:59.244Z,65.15
2022-10-09T04:09:26.252Z,65.21
2022-10-09T04:11:53.246Z,65.64
2022-10-09T04:14:20.432Z,65.87
2022-10-09T04:16:47.413Z,65.82
2022-10-09T04:19:14.474Z,64.66
2022-10-09T04:21:41.575Z,63.44
2022-10-09T04:24:08.784Z,62.47
2022-10-09T04:26:36.052Z,62.26
2022-10-09T04:29:03.324Z,62.00
2022-10-09T04:31:32.553Z,60.58
2022-10-09T04:33:59.668Z,58.69
2022-10-09T04:36:26.542Z,57.95
2022-10-09T04:38:53.601Z,57.23
2022-10-09T04:41:20.602Z,57.69
2022-10-09T04:43:47.563Z,57.94
2022-10-09T04:46:15.903Z,57.94
2022-10-09T04:48:45.548Z,58.69
2022-10-09T04:51:13.337Z,59.10
2022-10-09T04:53:41.247Z,59.65
2022-10-09T04:56:15.378Z,59.44
2022-10-09T04:58:43.212Z,59.75
2022-10-09T05:01:23.145Z,60.15
2022-10-09T05:03:51.080Z,60.52
2022-10-09T05:06:20.035Z,60.09
2022-10-09T05:08:47.516Z,59.51
2022-10-09T05:11:17.592Z,58.52
2022-10-09T05:13:47.586Z,58.08
2022-10-09T05:16:17.145Z,57.20
2022-10-09T05:18:46.563Z,56.02
2022-10-09T05:21:13.797Z,54.24
2022-10-09T05:23:40.687Z,51.87
2022-10-09T05:26:17.286Z,50.02
2022-10-09T05:28:45.264Z,47.76
2022-10-09T05:31:19.339Z,45.67
2022-10-09T05:33:46.446Z,43.31
2022-10-09T05:36:13.801Z,42.05
2022-10-09T05:38:43.022Z,39.95
2022-10-09T05:41:15.708Z,38.88
2022-10-09T05:43:44.966Z,38.18
2022-10-09T05:46:23.572Z,36.68
2022-10-09T05:48:59.136Z,36.27
2022-10-09T05:51:31.233Z,34.85
2022-10-09T05:53:59.139Z,33.10
2022-10-09T05:56:29.102Z,32.76
2022-10-09T05:59:25.412Z,31.89
2022-10-09T06:01:54.914Z,31.90
2022-10-09T06:04:24.326Z,31.26
2022-10-09T06:06:51.549Z,32.18
2022-10-09T06:09:24.412Z,33.68
2022-10-09T06:11:53.303Z,33.49
2022-10-09T06:14:24.531Z,32.77
2022-10-09T06:16:51.713Z,32.93
2022-10-09T06:19:20.280Z,32.57
2022-10-09T06:21:47.854Z,33.19
2022-10-09T06:24:28.748Z,31.76
2022-10-09T06:26:57.566Z,30.80
2022-10-09T06:29:25.307Z,30.76
2022-10-09T06:31:52.257Z,30.98
2022-10-09T06:34:19.316Z,31.22
2022-10-09T06:36:46.287Z,31.30
2022-10-09T06:39:13.342Z,31.37
2022-10-09T06:41:40.637Z,32.02
2022-10-09T06:44:23.395Z,31.44
2022-10-09T06:46:52.115Z,30.20
2022-10-09T06:49:19.190Z,29.65
2022-10-09T06:51:46.353Z,28.31
2022-10-09T06:54:17.327Z,28.68
2022-10-09T06:56:44.779Z,28.80
2022-10-09T06:59:12.473Z,27.74
2022-10-09T07:01:39.736Z,27.28
2022-10-09T07:04:11.774Z,27.66
2022-10-09T07:06:44.158Z,28.17
2022-10-09T07:09:13.251Z,27.77
2022-10-09T07:11:45.965Z,26.95
2022-10-09T07:14:16.007Z,25.88
2022-10-09T07:16:46.007Z,24.43
2022-10-09T07:19:14.456Z,23.14
2022-10-09T07:21:44.422Z,22.89
2022-10-09T07:24:12.820Z,23.67
2022-10-09T07:26:42.936Z,23.99
2022-10-09T07:29:13.128Z,23.14
2022-10-09T07:31:40.147Z,22.36
2022-10-09T07:34:07.432Z,21.78
2022-10-09T07:36:37.069Z,21.06
2022-10-09T07:39:05.484Z,20.66
2022-10-09T07:41:32.412Z,19.82
2022-10-09T07:43:59.433Z,19.04
2022-10-09T07:46:33.016Z,19.33
2022-10-09T07:49:00.732Z,19.01
2022-10-09T07:51:31.271Z,18.92
2022-10-09T07:54:00.346Z,18.26
2022-10-09T07:56:32.496Z,17.84
2022-10-09T07:59:02.366Z,18.14
2022-10-09T08:01:30.682Z,18.36
2022-10-09T08:03:59.043Z,18.51
2022-10-09T08:06:27.139Z,18.79
2022-10-09T08:08:56.256Z,19.16
2022-10-09T08:11:25.525Z,19.10
2022-10-09T08:13:54.920Z,19.03
2022-10-09T08:16:23.974Z,18.01
2022-10-09T08:18:58.029Z,17.96
2022-10-09T08:21:26.264Z,17.65
2022-10-09T08:23:55.205Z,17.85
2022-10-09T08:26:23.864Z,17.25
2022-10-09T08:28:52.354Z,17.72
2022-10-09T08:31:20.420Z,16.88
2022-10-09T08:33:47.571Z,16.72
2022-10-09T08:36:18.045Z,16.53
2022-10-09T08:38:47.885Z,17.32
2022-10-09T08:41:27.139Z,17.38
2022-10-09T08:44:10.644Z,17.32
2022-10-09T08:46:43.814Z,17.19
2022-10-09T08:49:22.772Z,16.69
2022-10-09T08:51:50.720Z,16.40
2022-10-09T08:54:34.574Z,16.87
2022-10-09T08:57:05.426Z,17.03
2022-10-09T08:59:32.546Z,16.42
2022-10-09T09:02:06.334Z,16.37
2022-10-09T09:04:36.506Z,16.51
2022-10-09T09:07:39.407Z,15.93
2022-10-09T09:10:26.199Z,16.41
2022-10-09T09:13:11.832Z,15.86
2022-10-09T09:15:47.558Z,16.59
2022-10-09T09:18:14.604Z,18.00
2022-10-09T09:21:25.943Z,18.16
2022-10-09T09:23:52.905Z,19.28
2022-10-09T09:26:22.179Z,19.54
2022-10-09T09:28:55.714Z,19.24
2022-10-09T09:31:31.491Z,20.15
2022-10-09T09:34:09.110Z,19.72
2022-10-09T09:36:54.417Z,19.70
2022-10-09T09:40:08.243Z,18.61
2022-10-09T09:42:14.859Z,18.94
2022-10-09T09:44:59.499Z,18.55
2022-10-09T09:47:36.541Z,19.11
2022-10-09T09:50:06.627Z,18.61
2022-10-09T09:52:41.424Z,19.81
2022-10-09T09:55:25.089Z,20.90
2022-10-09T09:57:52.231Z,21.15
2022-10-09T10:00:23.346Z,22.68
2022-10-09T10:02:51.054Z,22.58
2022-10-09T10:05:24.735Z,22.37
2022-10-09T10:07:53.095Z,21.81
2022-10-09T10:10:25.367Z,22.14
2022-10-09T10:12:53.134Z,21.96
2022-10-09T10:15:33.462Z,22.11
2022-10-09T10:18:07.249Z,22.75
2022-10-09T10:20:44.588Z,21.67
2022-10-09T10:23:49.214Z,23.29
2022-10-09T10:26:37.544Z,23.55
2022-10-09T10:29:21.824Z,23.17
2022-10-09T10:32:16.580Z,22.87
2022-10-09T10:34:49.619Z,23.86
2022-10-09T10:37:44.216Z,24.49
2022-10-09T10:40:20.310Z,24.98
2022-10-09T10:42:47.188Z,25.44
2022-10-09T10:45:26.886Z,26.11
2022-10-09T10:47:59.568Z,27.35
2022-10-09T10:50:36.448Z,27.79
2022-10-09T10:53:33.675Z,28.57
2022-10-09T10:56:08.428Z,29.50
2022-10-09T10:59:02.515Z,29.97
2022-10-09T11:01:44.375Z,29.34
2022-10-09T11:04:17.206Z,29.86
2022-10-09T11:07:16.532Z,30.28
2022-10-09T11:10:22.245Z,30.28
2022-10-09T11:12:58.192Z,30.54
2022-10-09T11:15:51.832Z,31.18
2022-10-09T11:18:46.965Z,31.93
2022-10-09T11:21:18.626Z,32.02
2022-10-09T11:24:21.145Z,32.76
2022-10-09T11:27:11.826Z,34.02
2022-10-09T11:29:53.059Z,31.51
2022-10-09T11:32:28.772Z,32.00
2022-10-09T11:35:11.608Z,32.56
2022-10-09T11:37:48.758Z,33.04
2022-10-09T11:40:26.019Z,33.08
2022-10-09T11:43:27.815Z,32.75
2022-10-09T11:46:02.781Z,32.90
2022-10-09T11:49:13.926Z,32.71
2022-10-09T11:51:51.971Z,33.25
2022-10-09T11:54:23.994Z,33.53
2022-10-09T11:56:57.985Z,33.57
2022-10-09T11:59:32.267Z,33.50
2022-10-09T12:02:28.477Z,34.05
2022-10-09T12:04:58.646Z,34.69
2022-10-09T12:07:36.844Z,34.69
2022-10-09T12:10:20.188Z,34.35
2022-10-09T12:12:57.848Z,34.66
2022-10-09T12:15:40.709Z,34.63
2022-10-09T12:18:32.301Z,35.18
2022-10-09T12:21:06.297Z,35.40
2022-10-09T12:23:36.612Z,35.98
2022-10-09T12:26:05.505Z,36.24
2022-10-09T12:29:06.537Z,35.97
2022-10-09T12:31:42.919Z,36.24
2022-10-09T12:34:28.004Z,36.94
2022-10-09T12:37:57.701Z,37.12
2022-10-09T12:40:33.597Z,37.75
2022-10-09T12:43:12.706Z,37.71
2022-10-09T12:45:47.665Z,37.97
2022-10-09T12:48:25.436Z,38.13
2022-10-09T12:50:53.097Z,37.70
2022-10-09T12:53:26.847Z,38.50
2022-10-09T12:56:00.743Z,38.79
2022-10-09T12:58:38.974Z,39.16
2022-10-09T13:01:13.008Z,39.30
2022-10-09T13:03:54.766Z,39.57
2022-10-09T13:06:26.130Z,39.50
2022-10-09T13:09:05.247Z,39.83
2022-10-09T13:11:40.547Z,40.47
2022-10-09T13:14:24.943Z,41.67
2022-10-09T13:16:52.219Z,43.32
2022-10-09T13:19:37.673Z,45.10
2022-10-09T13:22:20.845Z,45.52
2022-10-09T13:24:52.631Z,46.60
2022-10-09T13:27:26.849Z,47.17
2022-10-09T13:29:55.199Z,47.52
2022-10-09T13:32:24.433Z,48.30
2022-10-09T13:34:57.395Z,48.67
2022-10-09T13:37:26.315Z,49.10
2022-10-09T13:39:56.547Z,49.68
2022-10-09T13:42:30.327Z,50.16
2022-10-09T13:44:58.245Z,50.33
2022-10-09T13:47:25.411Z,50.71
2022-10-09T13:49:52.422Z,51.17
2022-10-09T13:52:19.592Z,51.46
2022-10-09T13:54:47.869Z,51.64
2022-10-09T13:57:18.126Z,51.99
2022-10-09T13:59:45.503Z,51.74
2022-10-09T14:02:13.135Z,52.19
2022-10-09T14:04:40.574Z,52.68
2022-10-09T14:07:10.941Z,53.08
2022-10-09T14:09:43.594Z,53.19
2022-10-09T14:12:14.297Z,53.32
2022-10-09T14:14:47.824Z,53.60
2022-10-09T14:17:18.720Z,54.00
2022-10-09T14:19:49.732Z,54.10
2022-10-09T14:22:19.211Z,54.34
2022-10-09T14:25:05.090Z,54.46
2022-10-09T14:27:37.434Z,54.89
2022-10-09T14:30:18.939Z,54.85
2022-10-09T14:32:46.785Z,55.38
2022-10-09T14:35:16.961Z,55.46
2022-10-09T14:37:47.691Z,55.81
2022-10-09T14:40:15.323Z,55.76
2022-10-09T14:42:42.488Z,56.78
2022-10-09T14:45:13.373Z,57.47
2022-10-09T14:47:53.808Z,58.45
2022-10-09T14:50:21.207Z,59.27
2022-10-09T14:52:48.445Z,59.74
2022-10-09T14:55:15.772Z,60.31
2022-10-09T14:57:43.879Z,60.67
2022-10-09T15:00:11.751Z,61.47
2022-10-09T15:05:10.176Z,61.63
2022-10-09T15:07:42.982Z,61.80
2022-10-09T15:10:16.097Z,61.17
2022-10-09T15:13:04.309Z,62.12
2022-10-09T15:15:32.841Z,62.50
2022-10-09T15:18:00.047Z,62.61
2022-10-09T15:20:27.355Z,62.94
2022-10-09T15:23:03.536Z,63.28
2022-10-09T15:26:05.084Z,63.33
2022-10-09T15:28:54.656Z,63.31
2022-10-09T15:32:04.328Z,64.07
2022-10-09T15:34:31.473Z,64.17
2022-10-09T15:37:01.133Z,63.98
2022-10-09T15:39:28.213Z,64.29
2022-10-09T15:41:57.456Z,64.40
2022-10-09T15:44:27.349Z,64.70
2022-10-09T15:46:54.638Z,64.21
2022-10-09T15:49:21.710Z,64.55
2022-10-09T15:51:49.178Z,65.21
2022-10-09T15:54:16.879Z,64.66
2022-10-09T15:56:43.944Z,65.16
2022-10-09T15:59:12.989Z,64.76
2022-10-09T16:01:40.263Z,64.63
2022-10-09T16:04:07.297Z,65.12
2022-10-09T16:06:37.230Z,65.34
2022-10-09T16:09:04.818Z,64.66
2022-10-09T16:11:34.933Z,64.95
2022-10-09T16:14:02.224Z,65.92
2022-10-09T16:16:30.043Z,65.53
2022-10-09T16:19:04.757Z,65.22
2022-10-09T16:21:32.437Z,65.34
2022-10-09T16:24:07.823Z,64.88
2022-10-09T16:26:52.438Z,65.25
2022-10-09T16:29:23.835Z,65.10
2022-10-09T16:31:51.591Z,65.20
2022-10-09T16:34:18.633Z,65.14
2022-10-09T16:36:45.691Z,64.80
2022-10-09T16:39:12.955Z,64.61
2022-10-09T16:41:42.127Z,64.42
2022-10-09T16:44:14.296Z,64.63
2022-10-09T16:46:43.889Z,64.83
2022-10-09T16:49:21.246Z,64.54
2022-10-09T16:51:51.759Z,64.72
2022-10-09T16:54:18.983Z,64.47
2022-10-09T16:56:46.311Z,64.71
2022-10-09T16:59:13.999Z,64.70
2022-10-09T17:01:47.996Z,64.91
2022-10-09T17:04:18.751Z,65.10
2022-10-09T17:06:51.087Z,65.32
2022-10-09T17:09:19.426Z,65.17
2022-10-09T17:11:56.210Z,65.41
2022-10-09T17:14:28.856Z,65.46
2022-10-09T17:16:56.194Z,65.43
2022-10-09T17:19:23.480Z,64.93
2022-10-09T17:21:51.345Z,66.08
2022-10-09T17:24:18.499Z,65.13
2022-10-09T17:26:45.987Z,65.50
2022-10-09T17:29:14.278Z,65.60
2022-10-09T17:31:41.473Z,65.85
2022-10-09T17:34:16.359Z,65.73
2022-10-09T17:36:53.054Z,65.83
2022-10-09T17:42:20.110Z,65.95
2022-10-09T17:44:51.975Z,65.48
2022-10-09T17:47:26.119Z,65.64
2022-10-09T17:49:57.592Z,65.85
2022-10-09T17:52:25.703Z,65.03
2022-10-09T17:54:57.043Z,65.62
2022-10-09T17:57:24.441Z,65.57
2022-10-09T17:59:51.477Z,66.00
2022-10-09T18:02:22.214Z,65.81
2022-10-09T18:04:55.182Z,65.97
2022-10-09T18:11:33.055Z,66.19
2022-10-09T18:14:09.850Z,66.28
2022-10-09T18:16:40.022Z,66.41
2022-10-09T18:19:15.875Z,66.06
2022-10-09T18:21:51.438Z,65.98
2022-10-09T18:24:29.480Z,66.21
2022-10-09T18:27:08.112Z,66.36
2022-10-09T18:29:43.674Z,65.96
2022-10-09T18:32:15.866Z,65.97
2022-10-09T18:34:46.473Z,65.87
2022-10-09T18:37:20.671Z,65.69
2022-10-09T18:39:52.498Z,66.19
2022-10-09T18:42:59.956Z,66.16
2022-10-09T18:45:50.190Z,66.00
2022-10-09T18:48:19.033Z,65.77
2022-10-09T18:50:46.101Z,65.95
2022-10-09T18:53:13.345Z,66.34
2022-10-09T18:55:42.776Z,65.69
2022-10-09T18:58:10.276Z,65.70
2022-10-09T19:00:39.526Z,65.63
2022-10-09T19:03:11.700Z,65.90
2022-10-09T19:05:38.959Z,66.03
2022-10-09T19:08:06.190Z,65.03
2022-10-09T19:10:33.181Z,65.89
2022-10-09T19:13:01.075Z,65.45
2022-10-09T19:15:28.193Z,65.48
2022-10-09T19:17:58.287Z,65.76
2022-10-09T19:20:25.405Z,65.80
2022-10-09T19:22:52.409Z,66.23
2022-10-09T19:25:19.497Z,65.86
2022-10-09T19:27:46.484Z,65.57
2022-10-09T19:30:16.427Z,65.69
2022-10-09T19:32:43.474Z,65.76
2022-10-09T19:35:13.206Z,66.05
2022-10-09T19:37:40.254Z,65.70
2022-10-09T19:40:07.821Z,65.88
2022-10-09T19:42:34.837Z,65.60
2022-10-09T19:45:01.801Z,65.93
2022-10-09T19:47:29.998Z,65.11
2022-10-09T19:49:57.047Z,65.30
2022-10-09T19:52:27.020Z,65.77
2022-10-09T19:54:54.599Z,65.38
2022-10-09T19:57:24.036Z,65.33
2022-10-09T19:59:51.043Z,65.40
2022-10-09T20:02:18.011Z,65.63
2022-10-09T20:04:48.773Z,65.56
2022-10-09T20:07:15.757Z,65.34
2022-10-09T20:09:42.732Z,65.47
2022-10-09T20:12:10.566Z,65.52
2022-10-09T20:14:37.558Z,65.41
2022-10-09T20:17:04.559Z,65.28
2022-10-09T20:19:31.829Z,65.39
2022-10-09T20:21:58.795Z,65.97
2022-10-09T20:24:25.876Z,65.68
2022-10-09T20:26:53.305Z,65.91
2022-10-09T20:29:20.414Z,65.39
2022-10-09T20:31:48.944Z,65.48
2022-10-09T20:34:16.959Z,65.63
2022-10-09T20:36:44.054Z,66.20
2022-10-09T20:39:13.925Z,66.02
2022-10-09T20:41:42.351Z,65.81
2022-10-09T20:44:11.007Z,65.59
2022-10-09T20:46:41.715Z,66.02
2022-10-09T20:49:13.130Z,66.03
2022-10-09T20:51:42.362Z,65.54
2022-10-09T20:54:16.402Z,65.91
2022-10-09T20:56:50.130Z,65.83
2022-10-09T20:59:20.144Z,65.82
2022-10-09T21:01:47.834Z,66.00
2022-10-09T21:04:14.941Z,65.78
2022-10-09T21:06:42.465Z,66.03
2022-10-09T21:09:09.566Z,65.68
2022-10-09T21:11:36.507Z,66.32
2022-10-09T21:14:03.794Z,65.26
2022-10-09T21:16:30.884Z,65.99
2022-10-09T21:19:00.639Z,66.15
2022-10-09T21:21:29.010Z,65.90
2022-10-09T21:23:58.261Z,65.63
2022-10-09T21:26:26.688Z,66.02
2022-10-09T21:28:59.085Z,66.13
2022-10-09T21:31:31.335Z,66.23
2022-10-09T21:33:59.874Z,66.21
2022-10-09T21:36:47.122Z,65.72
2022-10-09T21:39:25.179Z,65.64
2022-10-09T21:41:52.303Z,65.52
2022-10-09T21:44:19.251Z,66.14
2022-10-09T21:46:46.422Z,65.95
2022-10-09T21:49:22.278Z,65.56
2022-10-09T21:51:50.252Z,64.41
2022-10-09T21:54:17.613Z,64.83
2022-10-09T21:56:44.554Z,64.34
2022-10-09T21:59:11.601Z,64.98
2022-10-09T22:01:38.576Z,64.92
2022-10-09T22:04:05.878Z,63.85
2022-10-09T22:06:32.792Z,63.77
2022-10-09T22:09:00.409Z,63.90
2022-10-09T22:11:27.575Z,63.79
2022-10-09T22:13:55.594Z,64.23
2022-10-09T22:16:22.734Z,64.54
2022-10-09T22:18:49.593Z,63.97
2022-10-09T22:21:17.046Z,64.72
2022-10-09T22:23:44.123Z,64.10
2022-10-09T22:26:14.887Z,63.32
2022-10-09T22:28:41.984Z,63.35
2022-10-09T22:31:17.300Z,63.15
2022-10-09T22:33:44.678Z,63.14
2022-10-09T22:36:14.688Z,63.59
2022-10-09T22:38:44.022Z,64.60
2022-10-09T22:41:17.576Z,64.71
2022-10-09T22:43:47.166Z,63.82
2022-10-09T22:46:25.410Z,64.04
2022-10-09T22:48:53.451Z,64.18
2022-10-09T22:51:26.243Z,64.16
2022-10-09T22:53:54.503Z,63.54
2022-10-09T22:56:28.115Z,63.16
2022-10-09T22:58:55.135Z,63.74
2022-10-09T23:01:31.587Z,63.14
2022-10-09T23:04:00.990Z,63.13
2022-10-09T23:06:28.521Z,62.63
2022-10-09T23:08:56.598Z,62.20
2022-10-09T23:11:24.181Z,62.75
2022-10-09T23:13:56.721Z,61.99
2022-10-09T23:16:25.169Z,62.11
2022-10-09T23:18:52.251Z,61.92
2022-10-09T23:21:22.225Z,62.31
2022-10-09T23:23:50.075Z,62.51
2022-10-09T23:26:23.210Z,62.47
2022-10-09T23:28:52.308Z,62.63
2022-10-09T23:31:19.717Z,63.06
2022-10-09T23:33:50.664Z,62.60
2022-10-09T23:36:23.311Z,62.99
2022-10-09T23:38:51.260Z,62.64
2022-10-09T23:41:21.007Z,62.52
2022-10-09T23:43:49.671Z,62.98
2022-10-09T23:46:22.770Z,62.36
2022-10-09T23:48:51.280Z,61.56
2022-10-09T23:51:20.098Z,61.78
2022-10-09T23:53:47.621Z,61.82
2022-10-09T23:56:17.305Z,62.59
2022-10-09T23:58:45.217Z,62.38
